Time;durP1;ratioP1;P1;durP2;ratioP2;P2;SDS_P1;SDS_P2;PMS_P1;PMS_P2;Temp;Humidity;BMP_temperature;BMP_pressure;BME280_temperature;BME280_humidity;BME280_pressure;Samples;Min_cycle;Max_cycle;Signal;HPM_P1;HPM_P2
2024/01/13 00:02:48;;;;;;;19.88;7.45;;;;;;;2.52;100.00;102265.28;6324466;28;20047;-71
2024/01/13 00:05:51;;;;;;;21.92;8.02;;;;;;;2.49;100.00;102254.00;6323996;28;20048;-72
2024/01/13 00:08:52;;;;;;;20.45;6.72;;;;;;;2.45;100.00;102257.47;6324531;28;20048;-71
2024/01/13 00:11:53;;;;;;;18.98;6.43;;;;;;;2.53;100.00;102258.38;6324507;28;20122;-71
2024/01/13 00:14:55;;;;;;;16.85;6.28;;;;;;;2.53;100.00;102248.84;6324291;28;20048;-71
2024/01/13 00:17:56;;;;;;;16.42;6.45;;;;;;;2.49;100.00;102241.91;6323981;28;20059;-71
2024/01/13 00:20:58;;;;;;;25.58;6.55;;;;;;;2.54;100.00;102248.00;6324543;28;20044;-72
2024/01/13 00:24:00;;;;;;;15.45;6.93;;;;;;;2.53;100.00;102240.19;6325469;28;20349;-71
2024/01/13 00:27:01;;;;;;;15.43;6.88;;;;;;;2.63;100.00;102234.16;6328297;28;20048;-71
2024/01/13 00:30:03;;;;;;;18.38;7.22;;;;;;;2.60;100.00;102226.41;6328968;28;20051;-72
2024/01/13 00:33:04;;;;;;;16.35;7.07;;;;;;;2.51;100.00;102224.63;6328371;28;20071;-72
2024/01/13 00:36:08;;;;;;;19.58;8.38;;;;;;;2.62;100.00;102235.03;6327969;28;20044;-71
2024/01/13 00:39:09;;;;;;;16.48;6.95;;;;;;;2.64;100.00;102225.56;6328525;28;20177;-72
2024/01/13 00:42:10;;;;;;;18.35;7.32;;;;;;;2.60;100.00;102225.53;6327953;28;20050;-72
2024/01/13 00:45:12;;;;;;;17.05;6.20;;;;;;;2.64;100.00;102228.16;6336671;28;20043;-72
2024/01/13 00:48:13;;;;;;;18.25;6.95;;;;;;;2.57;100.00;102228.97;6343083;28;20122;-72
2024/01/13 00:51:16;;;;;;;15.07;6.30;;;;;;;2.56;100.00;102224.66;6339355;28;20352;-71
2024/01/13 00:54:17;;;;;;;12.88;6.70;;;;;;;2.56;100.00;102224.66;6351727;28;20048;-71
2024/01/13 00:57:19;;;;;;;16.00;6.53;;;;;;;2.53;100.00;102219.44;6350707;28;20047;-71
2024/01/13 01:00:20;;;;;;;15.98;6.53;;;;;;;2.45;100.00;102216.84;6343443;28;20048;-71
2024/01/13 01:03:21;;;;;;;14.38;6.78;;;;;;;2.52;100.00;102218.56;6353127;28;20046;-71
2024/01/13 01:06:24;;;;;;;15.55;6.07;;;;;;;2.54;100.00;102219.47;6352428;28;20070;-71
2024/01/13 01:09:25;;;;;;;18.23;7.90;;;;;;;2.56;100.00;102221.19;6353383;28;20091;-71
2024/01/13 01:12:26;;;;;;;24.27;8.93;;;;;;;2.54;100.00;102219.47;6352806;28;20466;-71
2024/01/13 01:15:28;;;;;;;22.38;8.30;;;;;;;2.51;100.00;102216.84;6352722;28;20149;-71
2024/01/13 01:18:29;;;;;;;23.88;8.48;;;;;;;2.48;100.00;102219.41;6352808;27;20047;-71
2024/01/13 01:21:32;;;;;;;20.00;8.25;;;;;;;2.54;100.00;102208.19;6353068;28;20043;-71
2024/01/13 01:24:33;;;;;;;17.00;6.80;;;;;;;2.54;100.00;102208.19;6352552;28;20107;-72
2024/01/13 01:27:34;;;;;;;14.25;5.50;;;;;;;2.51;100.00;102197.81;6352129;28;20056;-71
2024/01/13 01:30:36;;;;;;;19.63;6.82;;;;;;;2.56;100.00;102193.50;6352723;28;20428;-71
2024/01/13 01:33:38;;;;;;;14.10;6.68;;;;;;;2.62;100.00;102196.13;6352271;28;20443;-71
2024/01/13 01:36:40;;;;;;;15.68;7.35;;;;;;;2.48;100.00;102184.84;6350636;28;20050;-71
2024/01/13 01:39:41;;;;;;;14.95;7.03;;;;;;;2.41;100.00;102172.72;6352393;28;20051;-71
2024/01/13 01:42:44;;;;;;;16.48;7.88;;;;;;;2.45;100.00;102167.53;6352220;28;20044;-71
2024/01/13 01:45:46;;;;;;;17.00;7.20;;;;;;;2.39;100.00;102164.91;6351656;28;20051;-71
2024/01/13 01:48:47;;;;;;;18.02;6.97;;;;;;;2.42;100.00;102169.25;6352469;28;20056;-71
2024/01/13 01:51:50;;;;;;;20.38;8.55;;;;;;;2.36;100.00;102164.88;6352092;28;20051;-71
2024/01/13 01:54:52;;;;;;;24.35;8.27;;;;;;;2.44;100.00;102167.50;6351897;28;20043;-72
2024/01/13 01:57:54;;;;;;;20.17;9.43;;;;;;;2.49;100.00;102165.81;6351461;28;20055;-71
2024/01/13 02:00:56;;;;;;;19.83;10.00;;;;;;;2.46;100.00;102160.63;6351958;28;20074;-71
2024/01/13 02:03:58;;;;;;;19.23;8.27;;;;;;;2.47;100.00;102173.59;6351642;28;20059;-71
2024/01/13 02:07:01;;;;;;;17.92;8.35;;;;;;;2.53;100.00;102158.03;6350951;28;20047;-72
2024/01/13 02:10:03;;;;;;;18.38;8.02;;;;;;;2.52;100.00;102137.28;6351657;28;20352;-71
2024/01/13 02:13:04;;;;;;;16.38;7.20;;;;;;;2.49;100.00;102139.84;6351333;28;20054;-71
2024/01/13 02:16:08;;;;;;;14.32;7.47;;;;;;;2.52;100.00;102140.72;6351166;28;20043;-71
2024/01/13 02:19:09;;;;;;;16.17;7.32;;;;;;;2.53;100.00;102134.69;6351392;28;20461;-71
2024/01/13 02:22:12;;;;;;;16.02;7.70;;;;;;;2.54;100.00;102135.53;6351290;28;20051;-72
2024/01/13 02:25:13;;;;;;;15.75;6.65;;;;;;;2.49;100.00;102135.53;6350739;28;20066;-71
2024/01/13 02:28:16;;;;;;;14.55;7.38;;;;;;;2.46;100.00;102126.91;6351478;28;20044;-71
2024/01/13 02:31:18;;;;;;;16.85;7.05;;;;;;;2.43;100.00;102132.94;6351239;28;20091;-71
2024/01/13 02:34:19;;;;;;;12.65;5.72;;;;;;;2.44;100.00;102126.88;6350816;28;20459;-71
2024/01/13 02:37:22;;;;;;;11.65;5.75;;;;;;;2.48;100.00;102113.03;6350562;28;20047;-71
2024/01/13 02:40:23;;;;;;;12.38;5.38;;;;;;;2.52;100.00;102107.00;6350817;28;20337;-71
2024/01/13 02:43:24;;;;;;;11.82;5.72;;;;;;;2.54;100.00;102107.00;6342378;28;20044;-72
2024/01/13 02:46:26;;;;;;;11.38;5.40;;;;;;;2.58;100.00;102107.88;6340455;28;20070;-72
2024/01/13 02:49:27;;;;;;;12.77;6.00;;;;;;;2.42;100.00;102094.88;6342616;28;20055;-71
2024/01/13 02:52:30;;;;;;;10.60;5.03;;;;;;;2.51;100.00;102096.63;6350161;28;20070;-72
2024/01/13 02:55:31;;;;;;;7.93;3.78;;;;;;;2.37;100.00;102086.22;6334905;22;20045;-72
2024/01/13 02:58:33;;;;;;;8.32;3.63;;;;;;;2.46;100.00;102086.25;6291537;28;20049;-71
2024/01/13 03:01:34;;;;;;;8.68;3.83;;;;;;;2.42;100.00;102075.88;6275645;28;20076;-72
2024/01/13 03:04:35;;;;;;;6.80;3.47;;;;;;;2.43;100.00;102073.25;6261024;28;20045;-73
2024/01/13 03:07:38;;;;;;;8.48;3.85;;;;;;;2.47;100.00;102072.41;6250436;28;20133;-71
2024/01/13 03:10:39;;;;;;;6.70;3.40;;;;;;;2.41;100.00;102058.56;6250851;28;20425;-72
2024/01/13 03:13:41;;;;;;;8.90;4.03;;;;;;;2.47;100.00;102053.38;6250174;28;20045;-72
2024/01/13 03:16:42;;;;;;;8.05;4.03;;;;;;;2.40;100.00;102047.31;6250123;28;20050;-72
2024/01/13 03:19:43;;;;;;;10.90;4.90;;;;;;;2.36;100.00;102053.34;6250440;28;20053;-72
2024/01/13 03:22:46;;;;;;;9.77;4.25;;;;;;;2.37;100.00;102051.66;6250442;28;20046;-71
2024/01/13 03:25:48;;;;;;;9.02;4.10;;;;;;;2.26;100.00;102047.28;6258123;28;20053;-72
2024/01/13 03:28:49;;;;;;;13.35;5.32;;;;;;;2.24;100.00;102037.78;6275030;28;20045;-72
2024/01/13 03:31:50;;;;;;;14.77;5.78;;;;;;;2.28;100.00;102035.19;6275280;28;20056;-72
2024/01/13 03:34:52;;;;;;;10.20;4.43;;;;;;;2.25;100.00;102026.53;6274349;28;20048;-73
2024/01/13 03:37:55;;;;;;;10.43;5.07;;;;;;;2.32;100.00;102011.84;6273794;28;20053;-72
2024/01/13 03:40:56;;;;;;;12.73;5.70;;;;;;;2.32;100.00;102007.53;6274320;28;20049;-72
2024/01/13 03:43:58;;;;;;;11.65;5.85;;;;;;;2.41;100.00;102015.34;6274501;28;20045;-70
2024/01/13 03:46:59;;;;;;;14.32;5.65;;;;;;;2.27;100.00;102019.63;6274453;28;20085;-70
2024/01/13 03:50:00;;;;;;;12.52;6.00;;;;;;;2.26;100.00;102007.50;6274857;28;20049;-74
2024/01/13 03:53:03;;;;;;;11.35;5.18;;;;;;;2.18;100.00;102010.13;6274317;28;20053;-72
2024/01/13 03:56:05;;;;;;;8.68;4.20;;;;;;;2.13;100.00;102011.81;6274121;28;20044;-72
2024/01/13 03:59:06;;;;;;;12.73;5.13;;;;;;;2.23;100.00;102020.50;6276557;28;20353;-71
2024/01/13 04:02:08;;;;;;;12.25;4.72;;;;;;;2.23;100.00;102008.41;6279262;28;20494;-72
2024/01/13 04:05:09;;;;;;;16.42;5.00;;;;;;;2.25;100.00;101998.00;6279272;28;20060;-71
2024/01/13 04:08:12;;;;;;;11.93;4.88;;;;;;;2.28;100.00;102004.06;6279151;28;20082;-70
2024/01/13 04:11:13;;;;;;;10.07;4.63;;;;;;;2.32;100.00;102004.94;6279067;28;20357;-71
2024/01/13 04:14:14;;;;;;;9.38;4.70;;;;;;;2.23;100.00;101999.75;6278977;28;20041;-70
2024/01/13 04:17:16;;;;;;;13.95;5.53;;;;;;;2.23;100.00;101995.44;6278531;28;20366;-72
2024/01/13 04:20:17;;;;;;;9.98;4.47;;;;;;;2.25;100.00;101988.50;6278976;28;20489;-71
2024/01/13 04:23:20;;;;;;;9.70;4.28;;;;;;;2.28;100.00;101979.88;6278617;28;20345;-71
2024/01/13 04:26:22;;;;;;;10.82;4.55;;;;;;;2.14;100.00;101982.44;6278459;28;20523;-71
2024/01/13 04:29:23;;;;;;;8.32;3.72;;;;;;;2.27;100.00;101973.81;6279047;28;20508;-72
2024/01/13 04:32:24;;;;;;;5.75;2.97;;;;;;;2.28;100.00;101975.53;6279731;28;20052;-72
2024/01/13 04:35:25;;;;;;;7.50;3.60;;;;;;;2.22;100.00;101974.66;6279737;28;20057;-73
2024/01/13 04:38:28;;;;;;;8.25;3.83;;;;;;;2.28;100.00;101979.88;6278870;28;20053;-72
2024/01/13 04:41:30;;;;;;;10.80;4.32;;;;;;;2.15;100.00;101975.53;6278770;28;20045;-71
2024/01/13 04:44:31;;;;;;;11.07;4.63;;;;;;;2.20;100.00;101989.38;6277373;28;20358;-73
2024/01/13 04:47:32;;;;;;;8.38;4.15;;;;;;;2.21;100.00;101980.72;6294222;28;20045;-72
2024/01/13 04:50:34;;;;;;;6.82;3.50;;;;;;;2.26;100.00;101979.00;6275341;28;20048;-71
2024/01/13 04:53:37;;;;;;;10.65;3.88;;;;;;;2.22;100.00;101979.84;6277777;28;20053;-72
2024/01/13 04:56:38;;;;;;;11.85;4.93;;;;;;;2.21;100.00;101978.97;6280061;28;20057;-72
2024/01/13 04:59:39;;;;;;;9.80;4.30;;;;;;;2.23;100.00;101987.66;6278786;28;20045;-74
2024/01/13 05:02:41;;;;;;;9.93;4.40;;;;;;;2.28;100.00;101969.50;6278518;28;20045;-76
2024/01/13 05:05:42;;;;;;;11.43;4.43;;;;;;;2.34;100.00;101972.09;6278236;28;20052;-73
2024/01/13 05:08:45;;;;;;;6.82;3.63;;;;;;;2.23;100.00;101968.63;6279616;28;20053;-75
2024/01/13 05:11:46;;;;;;;8.70;4.03;;;;;;;2.21;100.00;101971.19;6279804;28;20349;-73
2024/01/13 05:14:47;;;;;;;8.18;4.05;;;;;;;2.19;100.00;101965.16;6279387;28;20057;-73
2024/01/13 05:17:49;;;;;;;7.03;2.83;;;;;;;2.22;100.00;101957.38;6277424;28;20048;-73
2024/01/13 05:20:50;;;;;;;7.78;3.58;;;;;;;2.18;100.00;101955.66;6277458;28;20052;-73
2024/01/13 05:23:53;;;;;;;10.07;3.13;;;;;;;2.19;100.00;101951.34;6285464;28;20052;-72
2024/01/13 05:26:54;;;;;;;7.60;3.63;;;;;;;2.18;100.00;101947.88;6291981;28;20064;-74
2024/01/13 05:29:57;;;;;;;7.75;3.50;;;;;;;2.20;100.00;101942.69;6289125;28;20051;-72
2024/01/13 05:32:59;;;;;;;5.00;3.05;;;;;;;2.18;100.00;101940.09;6293944;28;20052;-73
2024/01/13 05:36:00;;;;;;;8.00;2.72;;;;;;;2.24;100.00;101942.69;6301161;28;20457;-74
2024/01/13 05:39:03;;;;;;;5.53;2.80;;;;;;;2.20;100.00;101945.28;6291440;28;20047;-73
2024/01/13 05:42:04;;;;;;;5.72;3.05;;;;;;;2.23;100.00;101925.41;6301544;28;20048;-73
2024/01/13 05:45:07;;;;;;;5.03;3.08;;;;;;;2.32;100.00;101921.06;6280280;28;20119;-72
2024/01/13 05:48:08;;;;;;;8.23;3.83;;;;;;;2.29;100.00;101937.50;6277083;28;20041;-71
2024/01/13 05:51:09;;;;;;;7.22;3.60;;;;;;;2.20;100.00;101945.28;6277836;28;20456;-73
2024/01/13 05:54:12;;;;;;;5.97;3.05;;;;;;;2.21;100.00;101934.03;6277725;28;20049;-71
2024/01/13 05:57:13;;;;;;;7.80;3.63;;;;;;;2.18;100.00;101921.06;6278149;28;20080;-71
2024/01/13 06:00:16;;;;;;;7.70;3.60;;;;;;;2.29;100.00;101917.63;6278026;28;20060;-73
2024/01/13 06:03:19;;;;;;;8.25;3.78;;;;;;;2.22;100.00;101915.00;6276963;28;20049;-72
2024/01/13 06:06:20;;;;;;;6.38;3.25;;;;;;;2.18;100.00;101911.59;6279185;28;20056;-72
2024/01/13 06:09:23;;;;;;;8.50;3.42;;;;;;;2.25;100.00;101907.25;6280871;28;20056;-73
2024/01/13 06:12:26;;;;;;;14.30;4.00;;;;;;;2.23;100.00;101907.25;6278811;28;20048;-72
2024/01/13 06:15:28;;;;;;;4.75;2.75;;;;;;;2.25;100.00;101909.84;6276824;28;20139;-70
2024/01/13 06:18:29;;;;;;;8.43;2.88;;;;;;;2.30;100.00;101889.94;6277036;28;20056;-72
2024/01/13 06:21:30;;;;;;;8.02;3.63;;;;;;;2.26;100.00;101883.88;6276149;28;20112;-73
2024/01/13 06:24:33;;;;;;;5.07;3.00;;;;;;;2.18;100.00;101871.78;6276227;28;20071;-71
2024/01/13 06:27:34;;;;;;;5.25;2.80;;;;;;;2.27;100.00;101854.53;6275637;28;20045;-74
2024/01/13 06:30:36;;;;;;;5.90;3.10;;;;;;;2.29;100.00;101857.09;6280613;28;20048;-71
2024/01/13 06:33:37;;;;;;;7.45;3.38;;;;;;;2.18;100.00;101848.44;6284311;28;20045;-72
2024/01/13 06:36:39;;;;;;;7.45;3.47;;;;;;;2.25;100.00;101845.00;6283989;28;20053;-71
2024/01/13 06:39:42;;;;;;;6.82;3.35;;;;;;;2.24;100.00;101832.91;6300902;28;20059;-70
2024/01/13 06:42:43;;;;;;;4.20;2.47;;;;;;;2.25;100.00;101826.84;6296916;28;20050;-71
2024/01/13 06:45:44;;;;;;;4.88;2.88;;;;;;;2.30;100.00;101822.50;6284116;28;20049;-71
2024/01/13 06:48:46;;;;;;;7.20;3.22;;;;;;;2.23;100.00;101805.25;6292531;28;20048;-70
2024/01/13 06:51:47;;;;;;;4.47;2.63;;;;;;;2.22;100.00;101785.34;6287186;28;20052;-72
2024/01/13 06:54:49;;;;;;;5.57;2.40;;;;;;;2.29;100.00;101787.94;6300630;28;20124;-70
2024/01/13 06:57:51;;;;;;;5.93;2.83;;;;;;;2.20;100.00;101772.41;6289408;28;20044;-72
2024/01/13 07:00:52;;;;;;;5.80;2.00;;;;;;;2.28;100.00;101787.94;6294884;28;20052;-73
2024/01/13 07:03:54;;;;;;;5.22;2.42;;;;;;;2.15;100.00;101787.09;6300102;28;20045;-72
2024/01/13 07:06:55;;;;;;;5.07;2.38;;;;;;;2.22;100.00;101791.41;6299792;28;20055;-71
2024/01/13 07:09:58;;;;;;;3.22;2.05;;;;;;;2.22;100.00;101777.56;6300292;28;20345;-72
2024/01/13 07:12:59;;;;;;;5.45;2.70;;;;;;;2.17;100.00;101784.50;6300209;28;20052;-73
2024/01/13 07:16:01;;;;;;;5.50;2.33;;;;;;;2.14;100.00;101787.13;6299608;28;20075;-71
2024/01/13 07:19:02;;;;;;;3.08;1.63;;;;;;;2.18;100.00;101788.81;6300324;28;20444;-70
2024/01/13 07:22:04;;;;;;;3.50;1.75;;;;;;;2.24;100.00;101787.09;6300569;28;20048;-72
2024/01/13 07:25:07;;;;;;;5.55;2.58;;;;;;;2.28;100.00;101769.78;6299824;28;20049;-70
2024/01/13 07:28:08;;;;;;;4.18;1.95;;;;;;;2.20;100.00;101759.44;6290471;28;20464;-70
2024/01/13 07:31:10;;;;;;;6.30;1.70;;;;;;;2.29;100.00;101766.34;6283735;28;20048;-69
2024/01/13 07:34:12;;;;;;;3.60;2.15;;;;;;;2.29;100.00;101762.00;6291379;28;20053;-72
2024/01/13 07:37:13;;;;;;;4.35;1.85;;;;;;;2.19;100.00;101775.00;6287484;28;20058;-72
2024/01/13 07:40:17;;;;;;;5.57;2.58;;;;;;;2.22;100.00;101785.34;6283535;28;20041;-72
2024/01/13 07:43:18;;;;;;;4.13;1.98;;;;;;;2.25;100.00;101778.44;6278920;28;20055;-71
2024/01/13 07:46:19;;;;;;;3.30;1.60;;;;;;;2.20;100.00;101767.22;6278987;28;20045;-72
2024/01/13 07:49:21;;;;;;;2.75;1.63;;;;;;;2.23;100.00;101764.63;6279579;28;20056;-71
2024/01/13 07:52:22;;;;;;;6.20;2.78;;;;;;;2.23;100.00;101766.34;6279270;28;20049;-71
2024/01/13 07:55:25;;;;;;;7.15;2.72;;;;;;;2.18;100.00;101768.97;6277896;28;20041;-73
2024/01/13 07:58:26;;;;;;;6.03;2.85;;;;;;;2.24;100.00;101778.44;6276638;28;20136;-72
2024/01/13 08:01:27;;;;;;;8.18;3.97;;;;;;;2.26;100.00;101758.53;6276201;28;20049;-70
2024/01/13 08:04:28;;;;;;;9.07;4.30;;;;;;;2.40;100.00;101756.78;6278489;28;20433;-71
2024/01/13 08:07:30;;;;;;;6.57;2.97;;;;;;;2.39;100.00;101754.19;6278029;28;20049;-71
2024/01/13 08:10:35;;;;;;;6.60;2.92;;;;;;;2.43;100.00;101755.91;6278568;28;20053;-71
2024/01/13 08:13:36;;;;;;;5.70;2.63;;;;;;;2.36;100.00;101743.81;6276044;28;20341;-73
2024/01/13 08:16:38;;;;;;;7.65;3.40;;;;;;;2.40;100.00;101743.81;6278108;28;20041;-72
2024/01/13 08:19:39;;;;;;;6.40;3.00;;;;;;;2.36;100.00;101749.88;6279225;28;20056;-72
2024/01/13 08:22:40;;;;;;;4.35;2.53;;;;;;;2.39;100.00;101741.22;6278784;28;20495;-71
2024/01/13 08:25:43;;;;;;;7.57;3.00;;;;;;;2.35;100.00;101716.16;6278361;28;20052;-72
2024/01/13 08:28:44;;;;;;;6.45;3.40;;;;;;;2.53;100.00;101734.25;6279005;28;20063;-71
2024/01/13 08:31:49;;;;;;;7.90;4.00;;;;;;;2.55;100.00;101719.56;6279124;28;20444;-72
2024/01/13 08:34:50;;;;;;;6.03;2.97;;;;;;;2.51;100.00;101720.44;6278654;28;20322;-73
2024/01/13 08:37:53;;;;;;;8.25;3.20;;;;;;;2.52;100.00;101719.56;6277902;28;20052;-73
2024/01/13 08:40:56;;;;;;;6.25;3.00;;;;;;;2.49;100.00;101725.59;6278617;28;20460;-74
2024/01/13 08:43:57;;;;;;;5.93;2.72;;;;;;;2.50;100.00;101719.56;6279751;28;20037;-71
2024/01/13 08:46:59;;;;;;;4.63;2.40;;;;;;;2.60;100.00;101719.53;6289430;28;20440;-72
2024/01/13 08:50:00;;;;;;;5.55;2.60;;;;;;;2.63;100.00;101707.38;6294000;28;20154;-72
2024/01/13 08:53:01;;;;;;;4.93;2.58;;;;;;;2.63;100.00;101703.91;6294475;28;20071;-72
2024/01/13 08:56:05;;;;;;;7.05;2.75;;;;;;;2.70;100.00;101706.50;6288545;22;20040;-73
2024/01/13 08:59:06;;;;;;;6.00;3.33;;;;;;;2.56;100.00;101708.28;6257882;28;20058;-73
2024/01/13 09:02:08;;;;;;;4.72;2.40;;;;;;;2.53;100.00;101700.50;6282050;28;20044;-73
2024/01/13 09:05:10;;;;;;;7.18;2.95;;;;;;;2.46;100.00;101694.50;6293951;28;20052;-72
2024/01/13 09:08:11;;;;;;;3.92;2.58;;;;;;;2.53;100.00;101684.94;6287717;28;20136;-73
2024/01/13 09:11:14;;;;;;;7.47;3.05;;;;;;;2.53;100.00;101672.84;6278568;28;20044;-73
2024/01/13 09:14:16;;;;;;;9.45;3.90;;;;;;;2.63;100.00;101662.41;6292492;28;20048;-72
2024/01/13 09:17:17;;;;;;;7.20;3.33;;;;;;;2.57;100.00;101678.88;6299066;28;20068;-72
2024/01/13 09:20:19;;;;;;;8.60;3.30;;;;;;;2.66;100.00;101663.25;6299323;28;20045;-72
2024/01/13 09:23:20;;;;;;;7.20;3.13;;;;;;;2.68;100.00;101652.84;6288252;28;20357;-73
2024/01/13 09:26:23;;;;;;;6.72;3.90;;;;;;;2.61;100.00;101646.00;6291851;28;20576;-73
2024/01/13 09:29:25;;;;;;;6.00;3.45;;;;;;;2.73;100.00;101636.41;6294015;28;20187;-73
2024/01/13 09:32:26;;;;;;;8.73;3.78;;;;;;;2.72;100.00;101628.63;6283422;28;20048;-75
2024/01/13 09:35:30;;;;;;;7.15;3.65;;;;;;;2.64;100.00;101639.06;6272895;28;20052;-72
2024/01/13 09:38:32;;;;;;;8.10;4.03;;;;;;;2.75;100.00;101637.25;6267729;28;20330;-72
2024/01/13 09:41:35;;;;;;;8.45;3.50;;;;;;;2.87;100.00;101646.69;6275547;28;20448;-72
2024/01/13 09:44:36;;;;;;;8.27;3.47;;;;;;;2.92;100.00;101634.53;6273674;28;20073;-72
2024/01/13 09:47:37;;;;;;;6.45;3.10;;;;;;;2.77;100.00;101632.03;6276196;28;20135;-71
2024/01/13 09:50:40;;;;;;;12.75;3.03;;;;;;;2.89;100.00;101629.34;6274207;28;20191;-72
2024/01/13 09:53:48;;;;;;;5.80;2.88;;;;;;;2.89;100.00;101628.50;6268922;28;20073;-71
2024/01/13 09:56:53;;;;;;;13.40;3.45;;;;;;;2.85;100.00;101619.88;6270956;28;20052;-72
2024/01/13 09:59:54;;;;;;;7.10;3.13;;;;;;;2.93;100.00;101622.41;6272815;28;20045;-72
2024/01/13 10:02:57;;;;;;;10.20;3.78;;;;;;;2.93;100.00;101635.41;6266099;28;20323;-73
2024/01/13 10:05:59;;;;;;;12.25;3.95;;;;;;;2.92;100.00;101626.75;6260501;28;20061;-72
2024/01/13 10:09:00;;;;;;;7.07;3.75;;;;;;;2.82;100.00;101619.03;6275548;28;20052;-72
2024/01/13 10:12:06;;;;;;;6.80;3.70;;;;;;;2.91;100.00;101622.44;6289566;28;20053;-80
2024/01/13 10:15:13;;;;;;;7.88;4.43;;;;;;;3.03;100.00;101624.06;6288234;28;20040;-72
2024/01/13 10:18:24;;;;;;;8.13;4.00;;;;;;;2.98;100.00;101618.91;6319320;27;20386;-73
2024/01/13 10:21:25;;;;;;;9.20;4.28;;;;;;;3.10;100.00;101624.88;6313704;28;20352;-72
2024/01/13 10:24:29;;;;;;;10.48;4.13;;;;;;;3.12;100.00;101615.34;6320847;28;20044;-71
2024/01/13 10:27:30;;;;;;;12.05;3.67;;;;;;;3.09;100.00;101617.94;6312498;28;20052;-72
2024/01/13 10:30:32;;;;;;;9.65;4.53;;;;;;;3.02;100.00;101617.16;6313036;28;20459;-72
2024/01/13 10:33:35;;;;;;;12.48;4.93;;;;;;;3.13;100.00;101607.50;6304714;28;20048;-72
2024/01/13 10:36:37;;;;;;;10.05;4.60;;;;;;;3.11;100.00;101605.81;6302938;28;20068;-72
2024/01/13 10:39:38;;;;;;;7.75;3.95;;;;;;;3.02;100.00;101593.78;6314570;28;20090;-72
2024/01/13 10:42:45;;;;;;;11.85;5.40;;;;;;;3.06;100.00;101577.31;6305185;28;20056;-72
2024/01/13 10:45:53;;;;;;;11.65;4.10;;;;;;;3.01;100.00;101581.69;6301718;28;20433;-72
2024/01/13 10:49:02;;;;;;;9.05;3.75;;;;;;;3.05;100.00;101576.44;6301764;28;20704;-72
2024/01/13 10:52:04;;;;;;;12.57;4.65;;;;;;;3.04;100.00;101566.06;6308321;28;20051;-72
2024/01/13 10:55:07;;;;;;;7.50;3.85;;;;;;;3.10;100.00;101558.22;6302393;28;20127;-72
2024/01/13 10:58:10;;;;;;;10.32;5.03;;;;;;;3.11;100.00;101543.50;6305580;28;20136;-72
2024/01/13 11:01:12;;;;;;;12.48;5.45;;;;;;;3.13;100.00;101537.41;6308695;28;20044;-72
2024/01/13 11:04:16;;;;;;;9.27;4.55;;;;;;;3.11;100.00;101526.19;6305776;28;20040;-74
2024/01/13 11:07:17;;;;;;;14.68;4.50;;;;;;;3.16;100.00;101523.53;6307182;28;20110;-72
2024/01/13 11:10:24;;;;;;;11.57;5.93;;;;;;;3.20;100.00;101517.44;6303123;28;20049;-72
2024/01/13 11:13:29;;;;;;;9.75;4.85;;;;;;;3.22;100.00;101516.53;6303069;28;20045;-72
2024/01/13 11:16:33;;;;;;;9.63;4.80;;;;;;;3.20;100.00;101509.66;6300744;28;20045;-72
2024/01/13 11:19:37;;;;;;;11.25;5.03;;;;;;;3.16;100.00;101497.56;6309014;28;20045;-72
2024/01/13 11:22:40;;;;;;;14.65;5.60;;;;;;;3.18;100.00;101485.41;6302408;28;20052;-72
2024/01/13 11:25:41;;;;;;;9.88;4.68;;;;;;;3.23;100.00;101478.47;6305887;28;20066;-72
2024/01/13 11:28:46;;;;;;;12.45;5.25;;;;;;;2.97;100.00;101476.13;6304510;28;20048;-71
2024/01/13 11:31:54;;;;;;;10.05;4.55;;;;;;;2.96;100.00;101483.06;6289979;28;20053;-73
2024/01/13 11:34:58;;;;;;;10.55;5.13;;;;;;;2.88;100.00;101479.69;6281773;28;20223;-72
2024/01/13 11:38:02;;;;;;;10.57;5.60;;;;;;;2.89;100.00;101472.75;6285443;28;20041;-80
2024/01/13 11:41:05;;;;;;;12.50;5.35;;;;;;;3.12;100.00;101475.97;6301132;28;20056;-72
2024/01/13 11:44:08;;;;;;;14.07;4.95;;;;;;;3.12;100.00;101472.50;6302637;28;20445;-72
2024/01/13 11:47:11;;;;;;;10.80;4.93;;;;;;;3.04;100.00;101463.09;6287693;28;20419;-73
2024/01/13 11:50:36;;;;;;;11.55;4.93;;;;;;;3.01;100.00;101468.28;6281084;28;20071;-72
2024/01/13 11:53:40;;;;;;;14.23;5.32;;;;;;;2.93;100.00;101464.06;6280455;28;20135;-72
2024/01/13 11:56:43;;;;;;;12.35;4.93;;;;;;;2.98;100.00;101464.88;6292012;28;20459;-72
2024/01/13 11:59:46;;;;;;;19.27;8.18;;;;;;;2.98;100.00;101447.53;6283248;28;20049;-73
2024/01/13 12:02:47;;;;;;;10.85;5.25;;;;;;;3.10;100.00;101450.91;6290110;28;20048;-73
2024/01/13 12:05:51;;;;;;;12.07;5.47;;;;;;;3.04;100.00;101434.53;6289280;28;20063;-72
2024/01/13 12:08:53;;;;;;;14.15;5.65;;;;;;;3.08;100.00;101430.13;6293285;28;20045;-72
2024/01/13 12:11:55;;;;;;;8.93;4.55;;;;;;;3.02;100.00;101423.28;6302399;28;20048;-72
2024/01/13 12:15:03;;;;;;;14.60;6.80;;;;;;;3.13;100.00;101420.53;6302115;28;20048;-72
2024/01/13 12:18:05;;;;;;;12.82;5.68;;;;;;;3.04;100.00;101429.31;6301746;28;20428;-73
2024/01/13 12:21:08;;;;;;;14.75;6.22;;;;;;;3.15;100.00;101429.19;6302367;28;20049;-72
2024/01/13 12:24:10;;;;;;;13.02;6.30;;;;;;;3.08;100.00;101403.31;6290083;28;20132;-72
2024/01/13 12:27:11;;;;;;;12.35;6.18;;;;;;;3.01;100.00;101400.78;6283775;28;20082;-72
2024/01/13 12:30:18;;;;;;;16.60;6.90;;;;;;;3.03;100.00;101392.97;6292478;28;20048;-72
2024/01/13 12:33:22;;;;;;;18.45;6.70;;;;;;;3.15;100.00;101395.44;6290532;28;20437;-72
2024/01/13 12:36:25;;;;;;;24.67;8.13;;;;;;;3.07;100.00;101378.22;6293324;28;20044;-72
2024/01/13 12:39:26;;;;;;;16.10;7.10;;;;;;;3.07;100.00;101383.41;6291623;28;20048;-72
2024/01/13 12:42:28;;;;;;;24.95;8.00;;;;;;;3.13;100.00;101375.53;6288361;28;20056;-72
2024/01/13 12:45:29;;;;;;;22.88;8.48;;;;;;;3.12;100.00;101366.03;6290606;28;20658;-72
2024/01/13 12:48:30;;;;;;;28.52;9.80;;;;;;;3.07;100.00;101355.72;6285916;28;20131;-72
2024/01/13 12:51:35;;;;;;;27.30;9.80;;;;;;;3.14;100.00;101356.50;6293406;28;20095;-73
2024/01/13 12:54:38;;;;;;;26.45;10.27;;;;;;;3.06;100.00;101346.22;6284669;28;20451;-72
2024/01/13 12:57:40;;;;;;;25.10;10.10;;;;;;;3.04;100.00;101350.53;6290109;28;20041;-72
2024/01/13 13:00:41;;;;;;;33.08;10.95;;;;;;;3.15;100.00;101351.28;6283591;28;20053;-72
2024/01/13 13:03:43;;;;;;;36.85;10.95;;;;;;;3.06;100.00;101341.03;6281825;28;20055;-72
2024/01/13 13:06:46;;;;;;;27.70;10.73;;;;;;;3.09;100.00;101348.78;6280517;28;20163;-72
2024/01/13 13:09:47;;;;;;;31.60;12.50;;;;;;;3.09;100.00;101343.59;6285270;28;20052;-72
2024/01/13 13:12:49;;;;;;;33.05;12.10;;;;;;;3.15;100.00;101330.50;6283844;28;20441;-72
2024/01/13 13:15:50;;;;;;;36.15;11.93;;;;;;;3.01;100.00;101320.31;6286298;28;20055;-72
2024/01/13 13:18:52;;;;;;;34.38;12.18;;;;;;;3.06;100.00;101317.66;6285641;28;20044;-72
2024/01/13 13:21:55;;;;;;;31.30;11.50;;;;;;;3.11;100.00;101305.47;6287311;28;20500;-72
2024/01/13 13:24:58;;;;;;;39.28;14.20;;;;;;;3.08;100.00;101302.03;6287035;28;20052;-72
2024/01/13 13:27:59;;;;;;;33.08;11.80;;;;;;;3.20;100.00;101296.69;6283349;28;20442;-72
2024/01/13 13:31:01;;;;;;;30.13;12.77;;;;;;;3.20;100.00;101292.34;6282112;28;20040;-72
2024/01/13 13:34:02;;;;;;;33.10;12.70;;;;;;;3.00;100.00;101294.38;6288217;28;20317;-72
2024/01/13 13:37:05;;;;;;;44.10;13.50;;;;;;;3.09;100.00;101293.38;6284921;28;20059;-72
2024/01/13 13:40:09;;;;;;;44.80;13.13;;;;;;;3.12;100.00;101290.72;6283019;28;20437;-72
2024/01/13 13:43:10;;;;;;;33.45;11.77;;;;;;;3.14;100.00;101269.06;6289882;28;20174;-72
2024/01/13 13:46:13;;;;;;;38.17;13.57;;;;;;;3.10;100.00;101276.94;6280757;28;20048;-72
2024/01/13 13:49:14;;;;;;;35.92;12.50;;;;;;;3.16;100.00;101266.44;6288016;28;20179;-72
2024/01/13 13:52:17;;;;;;;35.88;12.32;;;;;;;3.13;100.00;101243.09;6291793;28;20048;-72
2024/01/13 13:55:18;;;;;;;31.35;12.30;;;;;;;3.10;100.00;101241.44;6291009;28;20445;-72
2024/01/13 13:58:20;;;;;;;36.55;13.00;;;;;;;3.13;100.00;101237.91;6288592;28;20045;-72
2024/01/13 14:01:21;;;;;;;36.85;11.85;;;;;;;3.10;100.00;101237.97;6290450;28;20052;-72